Cleveland, Ohio
Traffic Map
Current Weather Conditions
Cleveland, Ohio
Clear
Clear
16°
Feels Like: 16°
Wind Chill: 16° Ceiling: Unl
Heat Index: 16° Visibility: 10mi
Dew Point: 12° Wind: 12mph
Humidity: 78% Direction: 150° (SSE)
Pressure: 30.05in Gusts: 0mph
Raw Report DataKBKL 200553Z AUTO 15010KT 10SM CLR 16/12 A3005 RMK AO2 SLP173 T01610122 10189 20156 56012
Traffic Incident Summary
Active as of:
Severity:
Category:
InformationThere was an issue retrieving the traffic information for this location. Please try a different location or try again shortly.
Advertisements
Track Severe Weather on mobile